Strona główna
METAR-TAF:

METAR-TAF

Lotnisko :

Angoulême, Francja

Szerokość geograficzna: 45-43-46N, Długość geograficzna: 00-13-08E, wysokość: 132 m

Aktualna obserwacja pogody

Raport powstał 38 minut temu, godzina 19:00 UTC
Wiatr 13 kt od zachodnio-północny zachód
Temperatura 22°C
Wilgotność 57%
Ciśnienie 1016 hPa
Widzialność 10 km lub więcej
Brak chmur poniżej 1500 m i brak chmur cumulonimbus

METAR: LFBU 171900Z AUTO 29013KT CAVOK 22/13 Q1016 TEMPO 28015G25KT

czas: 21:38 (19:38 UTC)

Prognoza

Raport powstał 2 godziny i 38 minut temu, godzina 17:00 UTC
Prognoza ważna od 17 godzina 18 UTC do 18 godzina 18 UTC
Wiatr 10 kt od zachód
Widzialność 10 km lub więcej
Brak chmur poniżej 1500 m i brak chmur cumulonimbus
Przejściowo
od 17 godzina 18 UTC do 17 godzina 20 UTC
Wiatr 15 kt od zachód w porywach dochodzący do 25 kt
Przejściowo
od 18 godzina 00 UTC do 18 godzina 08 UTC
Przerywane chmury na wysokości 1800 ft

TAF: LFBU 171700Z 1718/1818 28010KT CAVOK TEMPO 1718/1720 28015G25KT TEMPO 1800/1808 BKN018

Obserwacja i prognoza pogody dla ponad 4000 lotnisk (raport METAR i TAF).

Dostępne stacje oznaczono żółtymi i czerwonymi punktami na mapie.

Najedź kursorem aby zobaczyć nazwę stacji.

Kliknij aby zobaczyć obserwacje i prognozy pogody.

Aby zmienić mapę: kliknij na zielony przycisk z czarnym krzyżykiem, aby powiększyć; na zielony przycisk z myślnikiem, aby pomniejszyć; na zielone strzałki, aby przejść do map sąsiednich.


METAR-TAF: